Time;durP1;ratioP1;P1;durP2;ratioP2;P2;SDS_P1;SDS_P2;PMS_P1;PMS_P2;Temp;Humidity;BMP_temperature;BMP_pressure;BME280_temperature;BME280_humidity;BME280_pressure;Samples;Min_cycle;Max_cycle;Signal;HPM_P1;HPM_P2
2023/07/26 00:00:15;;;;;;;2.55;1.30;;;;;;;21.50;49.67;101027.09;5031045;28;20034;-72
2023/07/26 00:02:41;;;;;;;1.38;1.10;;;;;;;21.49;49.68;101036.03;5031585;28;20071;-73
2023/07/26 00:05:07;;;;;;;0.95;0.90;;;;;;;21.50;49.92;101036.88;5026835;28;20033;-73
2023/07/26 00:07:32;;;;;;;2.78;1.45;;;;;;;21.47;49.84;101032.75;5031981;28;20053;-73
2023/07/26 00:09:58;;;;;;;1.23;1.13;;;;;;;21.47;50.03;101034.59;5030785;28;20109;-71
2023/07/26 00:12:26;;;;;;;1.50;1.30;;;;;;;21.49;49.65;101040.53;5031749;28;20033;-72
2023/07/26 00:14:51;;;;;;;1.17;1.08;;;;;;;21.41;49.96;101025.56;5030646;28;20392;-73
2023/07/26 00:17:17;;;;;;;1.30;1.20;;;;;;;21.44;49.84;101041.09;5025323;28;20030;-73
2023/07/26 00:19:42;;;;;;;2.78;1.45;;;;;;;21.43;49.75;101042.09;5030430;28;20067;-73
2023/07/26 00:22:08;;;;;;;1.17;1.08;;;;;;;21.47;49.95;101047.84;5029142;28;20044;-73
2023/07/26 00:24:33;;;;;;;2.05;1.60;;;;;;;21.45;49.93;101045.38;5032235;28;20483;-73
2023/07/26 00:26:59;;;;;;;1.35;1.20;;;;;;;21.37;49.90;101037.53;5027131;28;20045;-72
2023/07/26 00:29:24;;;;;;;1.67;1.23;;;;;;;21.46;50.06;101046.19;5026808;28;20116;-73
2023/07/26 00:31:52;;;;;;;1.83;1.23;;;;;;;21.45;49.77;101044.56;5035774;28;20033;-72
2023/07/26 00:34:17;;;;;;;2.15;1.20;;;;;;;21.44;50.02;101042.91;5047677;28;20037;-73
2023/07/26 00:36:43;;;;;;;0.90;0.90;;;;;;;21.43;49.78;101039.44;5024604;28;20049;-73
2023/07/26 00:39:09;;;;;;;1.80;1.30;;;;;;;21.42;49.75;101041.28;5029958;28;20045;-73
2023/07/26 00:41:35;;;;;;;1.77;1.40;;;;;;;21.44;50.00;101035.78;5031738;28;20053;-72
2023/07/26 00:44:01;;;;;;;1.55;1.20;;;;;;;21.34;49.84;101025.47;5031803;28;20542;-72
2023/07/26 00:46:27;;;;;;;1.77;1.35;;;;;;;21.41;49.95;101036.97;5030014;28;20037;-71
2023/07/26 00:48:53;;;;;;;1.95;1.15;;;;;;;21.40;49.96;101042.47;5030902;28;20041;-71
2023/07/26 00:51:20;;;;;;;1.98;1.27;;;;;;;21.41;50.09;101039.63;5032072;28;20044;-73
2023/07/26 00:53:46;;;;;;;1.60;1.30;;;;;;;21.42;49.79;101045.75;5033298;28;20345;-73
2023/07/26 00:56:12;;;;;;;1.55;1.40;;;;;;;21.41;49.92;101044.09;5028107;28;20137;-73
2023/07/26 00:58:39;;;;;;;1.27;1.10;;;;;;;21.37;50.22;101048.97;5029913;28;20034;-73
2023/07/26 01:01:05;;;;;;;1.50;1.30;;;;;;;21.38;50.09;101047.94;5028216;28;20470;-73
2023/07/26 01:03:31;;;;;;;1.33;1.23;;;;;;;21.37;49.98;101035.72;5029049;28;20037;-73
2023/07/26 01:05:59;;;;;;;1.40;1.10;;;;;;;21.41;49.66;101039.63;5030942;28;20037;-73
2023/07/26 01:08:46;;;;;;;1.58;1.30;;;;;;;21.40;49.88;101045.13;5026818;28;20061;-72
2023/07/26 01:11:24;;;;;;;1.50;1.20;;;;;;;21.39;49.85;101049.59;5028056;28;20510;-71
2023/07/26 01:14:13;;;;;;;1.80;1.35;;;;;;;21.39;49.72;101039.00;5025636;28;20061;-72
2023/07/26 01:16:40;;;;;;;0.90;0.85;;;;;;;21.40;49.97;101045.13;5029130;28;20060;-72
2023/07/26 01:19:05;;;;;;;1.98;1.40;;;;;;;21.39;49.90;101046.13;5028271;28;20033;-73
2023/07/26 01:21:32;;;;;;;2.03;1.25;;;;;;;21.35;50.13;101035.06;5028342;28;20068;-74
2023/07/26 01:23:58;;;;;;;1.20;1.10;;;;;;;21.37;50.15;101040.19;5031304;28;20052;-74
2023/07/26 01:26:24;;;;;;;1.35;1.17;;;;;;;21.38;50.24;101039.19;5047265;28;20380;-73
2023/07/26 01:28:49;;;;;;;1.45;1.13;;;;;;;21.36;50.27;101042.03;5031799;28;20037;-73
2023/07/26 01:31:18;;;;;;;3.45;1.10;;;;;;;21.37;50.13;101046.31;5049159;28;20037;-73
2023/07/26 01:33:48;;;;;;;2.03;1.30;;;;;;;21.26;50.12;101025.56;5036042;28;20049;-73
2023/07/26 01:36:15;;;;;;;2.10;1.20;;;;;;;21.36;50.11;101038.53;5034879;28;20040;-73
2023/07/26 01:38:43;;;;;;;2.22;1.35;;;;;;;21.35;50.22;101039.53;5033209;28;20056;-73
2023/07/26 01:41:09;;;;;;;1.83;1.45;;;;;;;21.35;49.89;101037.69;5034201;28;20048;-73
2023/07/26 01:43:36;;;;;;;2.78;1.60;;;;;;;21.36;50.10;101036.72;5031806;28;20041;-73
2023/07/26 01:46:02;;;;;;;1.58;1.48;;;;;;;21.35;49.85;101032.41;5034786;28;20152;-73
2023/07/26 01:48:27;;;;;;;2.00;1.13;;;;;;;21.34;50.19;101035.25;5049006;28;20172;-73
2023/07/26 01:50:53;;;;;;;1.70;1.30;;;;;;;21.33;49.99;101036.25;5034099;28;20053;-73
2023/07/26 01:53:18;;;;;;;1.45;1.10;;;;;;;21.30;50.16;101029.50;5032464;28;20045;-72
2023/07/26 01:55:46;;;;;;;1.50;1.35;;;;;;;21.28;50.08;101020.09;5033549;28;20039;-72
2023/07/26 01:58:12;;;;;;;2.33;1.20;;;;;;;21.30;50.23;101032.13;5035064;28;20523;-73
2023/07/26 02:00:38;;;;;;;1.25;1.10;;;;;;;21.32;49.93;101034.59;5031404;28;20071;-73
2023/07/26 02:03:04;;;;;;;1.63;1.33;;;;;;;21.33;50.19;101037.06;5033585;28;20067;-73
2023/07/26 02:05:29;;;;;;;1.30;1.20;;;;;;;21.31;50.26;101038.25;5037343;28;20072;-72
2023/07/26 02:07:55;;;;;;;1.13;1.02;;;;;;;21.29;50.10;101038.44;5032816;28;20037;-73
2023/07/26 02:10:22;;;;;;;1.48;1.33;;;;;;;21.31;50.23;101044.38;5030682;28;20037;-72
2023/07/26 02:12:48;;;;;;;1.48;1.38;;;;;;;21.33;50.09;101031.78;5038088;28;20090;-72
2023/07/26 02:15:14;;;;;;;1.38;1.20;;;;;;;21.30;49.91;101032.13;5034628;28;20033;-73
2023/07/26 02:17:39;;;;;;;1.35;1.25;;;;;;;21.31;50.09;101031.13;5029228;28;20037;-72
2023/07/26 02:20:05;;;;;;;2.25;1.33;;;;;;;21.32;50.06;101037.25;5034690;28;20039;-72
2023/07/26 02:22:31;;;;;;;2.53;2.00;;;;;;;21.31;49.89;101033.78;5033028;28;20064;-71
2023/07/26 02:24:56;;;;;;;1.63;1.33;;;;;;;21.31;50.03;101032.97;5032857;28;20033;-71
2023/07/26 02:27:22;;;;;;;2.28;1.38;;;;;;;21.27;50.07;101032.50;5034222;28;20049;-71
2023/07/26 02:29:47;;;;;;;1.65;1.50;;;;;;;21.30;50.24;101033.97;5025875;28;20037;-71
2023/07/26 02:32:13;;;;;;;2.67;1.55;;;;;;;21.29;50.35;101033.16;5036023;28;20030;-72
2023/07/26 02:34:39;;;;;;;2.03;1.65;;;;;;;21.28;50.23;101031.50;5051215;28;20033;-72
2023/07/26 02:37:04;;;;;;;1.92;1.50;;;;;;;21.11;50.23;101006.19;5029168;28;20064;-72
2023/07/26 02:39:30;;;;;;;1.95;1.48;;;;;;;21.29;50.09;101041.09;5029592;28;20048;-70
2023/07/26 02:41:55;;;;;;;2.42;1.40;;;;;;;21.29;50.31;101029.69;5030205;28;20034;-70
2023/07/26 02:44:21;;;;;;;1.55;1.38;;;;;;;21.26;49.99;101030.06;5035094;28;20774;-71
2023/07/26 02:46:46;;;;;;;2.20;1.55;;;;;;;21.26;50.39;101032.69;5033107;28;20041;-70
2023/07/26 02:49:12;;;;;;;2.35;1.33;;;;;;;21.27;50.02;101031.69;5030511;28;20037;-71
2023/07/26 02:51:38;;;;;;;1.42;1.33;;;;;;;21.28;49.78;101023.56;5030077;28;20030;-72
2023/07/26 02:54:03;;;;;;;1.30;1.20;;;;;;;21.25;50.22;101029.22;5035187;28;20048;-72
2023/07/26 02:56:29;;;;;;;1.48;1.38;;;;;;;21.23;49.94;101019.81;5029334;28;20029;-72
2023/07/26 02:58:54;;;;;;;1.55;1.40;;;;;;;21.26;50.02;101030.88;5033517;28;20033;-72
2023/07/26 03:01:20;;;;;;;1.55;1.45;;;;;;;21.26;49.92;101035.34;5035882;28;20061;-71
2023/07/26 03:03:45;;;;;;;1.92;1.40;;;;;;;21.21;50.33;101032.41;5033020;28;20038;-72
2023/07/26 03:06:12;;;;;;;1.52;1.33;;;;;;;21.24;50.15;101038.19;5034288;28;20475;-72
2023/07/26 03:08:37;;;;;;;1.55;1.42;;;;;;;21.23;49.99;101043.63;5029666;28;20029;-72
2023/07/26 03:11:03;;;;;;;2.22;1.48;;;;;;;21.12;50.07;101018.44;5032693;28;20052;-73
2023/07/26 03:13:28;;;;;;;1.48;1.33;;;;;;;21.24;50.08;101034.69;5027114;28;20085;-72
2023/07/26 03:15:54;;;;;;;2.17;1.50;;;;;;;21.22;50.11;101049.94;5030065;28;20041;-71
2023/07/26 03:18:20;;;;;;;1.65;1.27;;;;;;;21.20;50.19;101047.47;5032308;28;20055;-72
2023/07/26 03:20:46;;;;;;;1.63;1.33;;;;;;;21.16;50.25;101043.53;5046140;28;20049;-73
2023/07/26 03:23:12;;;;;;;1.67;1.52;;;;;;;21.21;50.36;101051.78;5030727;28;20471;-72
2023/07/26 03:25:38;;;;;;;2.85;1.60;;;;;;;21.21;50.15;101057.06;5034661;28;20041;-72
2023/07/26 03:28:04;;;;;;;1.40;1.30;;;;;;;21.21;50.26;101059.72;5033520;28;20041;-73
2023/07/26 03:30:29;;;;;;;2.53;1.50;;;;;;;21.20;50.20;101054.59;5032086;28;20030;-72
2023/07/26 03:32:55;;;;;;;2.08;1.48;;;;;;;21.19;50.44;101055.59;5030635;28;20060;-72
2023/07/26 03:35:20;;;;;;;1.55;1.30;;;;;;;21.08;50.15;101039.16;5032236;28;20387;-71
2023/07/26 03:37:46;;;;;;;2.25;1.45;;;;;;;21.15;50.01;101049.84;5036112;28;20045;-72
2023/07/26 03:40:13;;;;;;;1.63;1.40;;;;;;;21.17;50.43;101057.59;5032925;28;20057;-73
2023/07/26 03:42:40;;;;;;;1.98;1.40;;;;;;;21.17;50.17;101053.13;5045993;28;20029;-72
2023/07/26 03:45:06;;;;;;;1.33;1.20;;;;;;;21.17;50.28;101050.47;5030941;28;20079;-72
2023/07/26 03:47:32;;;;;;;1.23;1.13;;;;;;;21.17;50.20;101047.81;5028350;28;20835;-72
2023/07/26 03:49:59;;;;;;;2.13;1.65;;;;;;;21.15;50.29;101049.84;5030849;28;20083;-73
2023/07/26 03:52:25;;;;;;;1.98;1.30;;;;;;;21.15;50.08;101049.00;5024529;28;20060;-73
2023/07/26 03:54:51;;;;;;;1.75;1.33;;;;;;;21.13;50.22;101047.38;5034152;28;20040;-71
2023/07/26 03:57:16;;;;;;;1.33;1.23;;;;;;;21.11;50.32;101048.56;5027089;28;20657;-71
2023/07/26 03:59:42;;;;;;;2.28;1.40;;;;;;;21.14;49.96;101048.19;5034085;28;20048;-71
2023/07/26 04:02:08;;;;;;;2.30;1.55;;;;;;;21.06;50.26;101041.16;5031992;28;20058;-72
2023/07/26 04:04:35;;;;;;;1.67;1.35;;;;;;;21.13;50.38;101057.13;5031249;28;20136;-72
2023/07/26 04:07:02;;;;;;;1.33;1.23;;;;;;;21.16;50.21;101063.91;5032398;28;20033;-72
2023/07/26 04:09:28;;;;;;;2.25;1.33;;;;;;;21.13;50.33;101065.91;5042498;28;20026;-71
2023/07/26 04:11:57;;;;;;;1.23;1.13;;;;;;;21.10;50.16;101070.75;5031088;28;20038;-72
2023/07/26 04:14:23;;;;;;;2.03;1.57;;;;;;;20.99;50.16;101050.00;5032761;28;20432;-72
2023/07/26 04:16:50;;;;;;;1.30;1.20;;;;;;;21.00;50.14;101056.94;5026003;28;20552;-71
2023/07/26 04:19:15;;;;;;;1.75;1.42;;;;;;;21.13;50.06;101075.69;5033796;28;20041;-72
2023/07/26 04:21:41;;;;;;;1.58;1.45;;;;;;;21.06;50.49;101065.00;5032163;28;20527;-73
2023/07/26 04:24:06;;;;;;;1.60;1.48;;;;;;;21.11;50.07;101080.34;5026266;28;20048;-72
2023/07/26 04:26:32;;;;;;;1.85;1.50;;;;;;;20.89;50.27;101031.75;5030335;28;20060;-73
2023/07/26 04:28:58;;;;;;;2.55;1.50;;;;;;;21.11;50.46;101078.50;5034769;28;20052;-72
2023/07/26 04:31:24;;;;;;;1.52;1.42;;;;;;;21.11;50.26;101080.34;5026406;28;20034;-72
2023/07/26 04:33:49;;;;;;;1.60;1.42;;;;;;;21.12;50.34;101080.16;5033361;28;20045;-73
2023/07/26 04:36:15;;;;;;;2.05;1.77;;;;;;;21.12;50.11;101084.63;5028633;28;20049;-73
2023/07/26 04:38:40;;;;;;;1.40;1.30;;;;;;;21.13;50.07;101088.91;5025460;28;20432;-72
2023/07/26 04:41:06;;;;;;;1.55;1.45;;;;;;;21.03;50.23;101075.97;5026438;28;20037;-72
2023/07/26 04:43:32;;;;;;;2.35;1.58;;;;;;;21.00;50.16;101072.81;5035630;28;20041;-73
2023/07/26 04:45:57;;;;;;;1.80;1.70;;;;;;;21.11;49.96;101085.63;5025234;28;20068;-74
2023/07/26 04:48:23;;;;;;;1.48;1.38;;;;;;;21.09;50.34;101080.53;5029750;28;20056;-74
2023/07/26 04:50:49;;;;;;;1.67;1.27;;;;;;;21.10;50.08;101084.81;5020798;28;20045;-73
2023/07/26 04:53:16;;;;;;;1.75;1.30;;;;;;;21.05;50.25;101073.13;5044988;28;20064;-74
2023/07/26 04:55:43;;;;;;;1.60;1.50;;;;;;;20.99;50.16;101058.78;5031739;28;20049;-73
2023/07/26 04:58:09;;;;;;;1.35;1.25;;;;;;;21.10;50.07;101079.50;5029187;28;20123;-73
2023/07/26 05:00:39;;;;;;;1.67;1.35;;;;;;;21.09;50.33;101082.34;5027754;28;20065;-73
2023/07/26 05:03:05;;;;;;;2.10;1.45;;;;;;;21.09;50.03;101075.22;5026194;28;20045;-73
2023/07/26 05:05:34;;;;;;;1.45;1.20;;;;;;;21.11;49.98;101083.81;5032806;28;20067;-74
2023/07/26 05:08:01;;;;;;;3.57;2.10;;;;;;;21.09;50.11;101085.00;5034480;28;20794;-73
2023/07/26 05:10:27;;;;;;;1.70;1.30;;;;;;;21.10;49.93;101076.88;5026939;28;20033;-72
2023/07/26 05:12:52;;;;;;;1.48;1.38;;;;;;;21.11;50.26;101077.69;5031086;28;20529;-73
2023/07/26 05:15:18;;;;;;;1.45;1.35;;;;;;;21.01;50.04;101055.97;5024207;28;20048;-72
2023/07/26 05:17:44;;;;;;;1.70;1.30;;;;;;;21.07;49.91;101065.81;5025510;28;20081;-73
2023/07/26 05:20:11;;;;;;;1.40;1.30;;;;;;;21.18;49.79;101077.78;5028284;28;20040;-73
2023/07/26 05:22:36;;;;;;;2.30;1.42;;;;;;;21.18;50.02;101072.47;5030315;28;20679;-73
2023/07/26 05:25:02;;;;;;;2.67;1.48;;;;;;;21.19;50.00;101077.63;5029944;28;20060;-72
2023/07/26 05:27:28;;;;;;;1.35;1.20;;;;;;;21.19;49.70;101076.78;5032120;28;20037;-73
2023/07/26 05:29:53;;;;;;;2.63;1.40;;;;;;;21.19;49.82;101082.09;5026792;28;20037;-73
2023/07/26 05:32:20;;;;;;;1.60;1.27;;;;;;;21.05;50.03;101066.00;5031035;28;20032;-73
2023/07/26 05:34:45;;;;;;;2.15;1.40;;;;;;;21.15;50.05;101078.13;5030611;28;20484;-74
2023/07/26 05:37:11;;;;;;;2.22;1.55;;;;;;;21.18;49.91;101080.41;5027510;28;20036;-74
2023/07/26 05:39:36;;;;;;;2.08;1.60;;;;;;;21.16;49.95;101085.91;5034398;28;20057;-73
2023/07/26 05:42:02;;;;;;;2.28;1.67;;;;;;;21.10;49.89;101082.16;5032626;28;20042;-73
2023/07/26 05:44:27;;;;;;;1.25;1.15;;;;;;;21.17;49.75;101095.50;5028892;28;20033;-73
2023/07/26 05:46:53;;;;;;;1.45;1.15;;;;;;;21.21;49.71;101103.91;5032511;28;20578;-73
2023/07/26 05:49:18;;;;;;;1.98;1.50;;;;;;;21.19;50.12;101106.75;5029142;28;20064;-73
2023/07/26 05:51:44;;;;;;;1.27;1.17;;;;;;;21.19;49.48;101106.75;5029412;28;20041;-74
2023/07/26 05:54:09;;;;;;;1.80;1.60;;;;;;;21.15;49.67;101101.97;5026857;28;20037;-73
2023/07/26 05:56:35;;;;;;;1.40;1.30;;;;;;;21.16;50.04;101103.63;5025749;28;20038;-73
2023/07/26 05:59:00;;;;;;;1.88;1.45;;;;;;;21.08;50.01;101099.25;5027959;28;20575;-73
2023/07/26 06:01:26;;;;;;;1.52;1.42;;;;;;;21.16;49.84;101119.50;5029467;28;20058;-73
2023/07/26 06:03:53;;;;;;;1.20;1.10;;;;;;;21.15;49.77;101123.16;5033322;28;20351;-72
2023/07/26 06:06:19;;;;;;;1.40;1.13;;;;;;;21.09;49.81;101112.28;5033221;28;20059;-73
2023/07/26 06:08:45;;;;;;;0.90;0.90;;;;;;;21.03;49.91;101106.91;5033745;28;20482;-73
2023/07/26 06:11:10;;;;;;;1.42;1.10;;;;;;;21.09;50.08;101122.06;5028286;28;20045;-72
2023/07/26 06:13:36;;;;;;;2.47;1.50;;;;;;;21.02;50.16;101106.09;5031041;28;20458;-72
2023/07/26 06:16:02;;;;;;;1.42;1.30;;;;;;;21.08;50.25;101115.13;5035406;28;20159;-72
2023/07/26 06:18:27;;;;;;;1.52;1.42;;;;;;;21.14;49.89;101119.69;5033862;28;20153;-72
2023/07/26 06:20:53;;;;;;;1.58;1.45;;;;;;;21.18;49.75;101118.31;5028069;28;20121;-71
2023/07/26 06:23:18;;;;;;;1.25;1.10;;;;;;;21.18;49.88;101123.63;5033960;28;20041;-72
2023/07/26 06:25:44;;;;;;;1.42;1.33;;;;;;;21.21;49.45;101122.47;5032389;28;20041;-72
2023/07/26 06:28:09;;;;;;;2.15;1.70;;;;;;;21.22;49.63;101118.81;5033989;28;20037;-71
2023/07/26 06:30:35;;;;;;;1.58;1.27;;;;;;;21.22;49.45;101114.31;5038689;28;20030;-72
2023/07/26 06:33:01;;;;;;;1.17;1.05;;;;;;;21.25;49.70;101123.75;5027837;28;20096;-72
2023/07/26 06:35:26;;;;;;;1.40;1.30;;;;;;;21.27;49.81;101113.81;5030050;28;20037;-73
2023/07/26 06:37:52;;;;;;;2.10;1.42;;;;;;;21.29;49.62;101117.91;5053370;28;20155;-72
2023/07/26 06:40:17;;;;;;;1.00;1.00;;;;;;;21.31;49.54;101117.72;5035636;28;20044;-69
2023/07/26 06:42:43;;;;;;;1.92;1.48;;;;;;;21.36;49.29;101124.13;5027440;28;20041;-69
2023/07/26 06:45:09;;;;;;;1.52;1.13;;;;;;;21.42;48.96;101127.88;5034189;28;20097;-69
2023/07/26 06:47:35;;;;;;;1.48;1.38;;;;;;;21.44;48.97;101128.50;5029216;28;20071;-70
2023/07/26 06:50:01;;;;;;;1.10;1.05;;;;;;;21.46;48.97;101123.03;5031746;28;20548;-70
2023/07/26 06:52:30;;;;;;;1.30;1.20;;;;;;;21.46;49.24;101126.50;5026770;28;20041;-69
2023/07/26 06:54:55;;;;;;;2.80;1.38;;;;;;;21.48;48.95;101136.91;5032139;28;20064;-70
2023/07/26 06:57:21;;;;;;;1.40;1.27;;;;;;;21.49;49.00;101130.59;5029275;28;20060;-73
2023/07/26 06:59:46;;;;;;;2.53;1.63;;;;;;;21.51;48.92;101131.25;5033639;28;20041;-72
2023/07/26 07:02:12;;;;;;;1.70;1.40;;;;;;;21.56;49.03;101140.31;5028325;28;20061;-71
2023/07/26 07:04:37;;;;;;;1.50;1.30;;;;;;;21.55;48.92;101141.31;5031552;28;20049;-72
2023/07/26 07:07:03;;;;;;;1.35;1.25;;;;;;;21.59;49.11;101147.06;5031900;28;20111;-73
2023/07/26 07:09:29;;;;;;;1.88;1.33;;;;;;;21.61;48.81;101139.75;5035698;28;20038;-73
2023/07/26 07:11:54;;;;;;;3.05;1.27;;;;;;;21.58;48.77;101143.59;5032986;28;20033;-73
2023/07/26 07:14:20;;;;;;;1.42;1.15;;;;;;;21.58;49.11;101156.03;5037011;28;20059;-72
2023/07/26 07:16:46;;;;;;;1.45;1.20;;;;;;;21.55;48.92;101146.63;5027634;28;20041;-73
2023/07/26 07:19:11;;;;;;;1.40;1.02;;;;;;;21.42;48.85;101128.69;5028900;28;20037;-73
2023/07/26 07:21:37;;;;;;;2.10;1.08;;;;;;;21.51;49.05;101139.19;5030255;28;20067;-73
2023/07/26 07:24:04;;;;;;;2.97;1.40;;;;;;;21.54;48.72;101139.63;5029274;28;20042;-73
2023/07/26 07:26:30;;;;;;;1.42;1.33;;;;;;;21.52;49.20;101136.34;5027501;28;20044;-74
2023/07/26 07:28:55;;;;;;;2.00;1.02;;;;;;;21.51;48.98;101136.53;5033840;28;20097;-71
2023/07/26 07:31:21;;;;;;;1.88;1.48;;;;;;;21.50;49.08;101134.91;5030906;28;20022;-73
2023/07/26 07:33:47;;;;;;;2.00;1.50;;;;;;;21.49;49.19;101135.91;5027581;28;20459;-73
2023/07/26 07:36:17;;;;;;;1.15;1.10;;;;;;;21.34;49.13;101110.22;5025377;28;20041;-73
2023/07/26 07:38:44;;;;;;;1.80;1.40;;;;;;;21.53;48.86;101134.53;5033535;28;20037;-72
2023/07/26 07:41:10;;;;;;;1.30;1.20;;;;;;;21.53;48.88;101126.56;5027347;28;20042;-73
2023/07/26 07:43:35;;;;;;;1.83;1.48;;;;;;;21.46;49.06;101131.81;5034879;28;20049;-73
2023/07/26 07:46:01;;;;;;;1.10;1.00;;;;;;;21.54;49.09;101142.28;5030985;28;20037;-73
2023/07/26 07:48:26;;;;;;;1.27;1.17;;;;;;;21.51;49.11;101150.63;5031876;28;20046;-72
2023/07/26 07:50:55;;;;;;;1.33;1.20;;;;;;;21.51;49.26;101155.91;5023785;28;20044;-72
2023/07/26 07:53:22;;;;;;;1.25;1.17;;;;;;;21.37;49.33;101130.25;5031902;28;20110;-73
2023/07/26 07:55:47;;;;;;;2.22;1.33;;;;;;;21.52;49.05;101160.19;5030854;28;20492;-72
2023/07/26 07:58:13;;;;;;;1.40;1.30;;;;;;;21.61;48.87;101161.78;5031054;28;20052;-73
2023/07/26 08:00:38;;;;;;;1.45;1.30;;;;;;;21.67;48.81;101160.22;5028356;28;20777;-73
2023/07/26 08:03:05;;;;;;;1.75;1.17;;;;;;;21.70;48.48;101160.66;5026990;28;20057;-73
2023/07/26 08:05:32;;;;;;;2.13;1.45;;;;;;;21.76;48.64;101155.66;5017574;28;20609;-73
2023/07/26 08:07:58;;;;;;;1.60;1.25;;;;;;;21.82;48.70;101163.66;5030305;28;20079;-73
2023/07/26 08:10:23;;;;;;;1.65;1.23;;;;;;;21.76;48.19;101143.22;5022775;28;20029;-74
2023/07/26 08:12:49;;;;;;;2.47;1.50;;;;;;;21.92;48.21;101156.28;5034706;28;20045;-73
2023/07/26 08:15:14;;;;;;;1.40;1.30;;;;;;;21.96;48.09;101154.88;5033811;28;20051;-74
2023/07/26 08:17:40;;;;;;;1.60;1.50;;;;;;;21.99;47.92;101154.50;5030386;28;20060;-71
2023/07/26 08:20:06;;;;;;;1.27;1.15;;;;;;;21.98;48.44;101158.16;5029077;28;20063;-73
2023/07/26 08:22:32;;;;;;;2.67;1.50;;;;;;;21.99;48.21;101158.97;5032694;28;20045;-69
2023/07/26 08:24:57;;;;;;;1.13;1.00;;;;;;;21.99;48.61;101162.47;5025917;28;20057;-69
2023/07/26 08:27:23;;;;;;;1.92;1.10;;;;;;;21.96;48.54;101167.31;5031334;28;20045;-69
2023/07/26 08:29:49;;;;;;;1.25;1.15;;;;;;;21.96;48.67;101162.00;5027276;28;20087;-69
2023/07/26 08:32:15;;;;;;;1.38;1.27;;;;;;;21.92;48.48;101161.56;5027657;28;20049;-69
2023/07/26 08:34:41;;;;;;;1.27;1.10;;;;;;;21.98;48.76;101163.47;5024569;28;20030;-69
2023/07/26 08:37:06;;;;;;;1.98;1.63;;;;;;;21.97;48.63;101163.66;5045542;28;20392;-73
2023/07/26 08:39:32;;;;;;;1.33;1.20;;;;;;;21.96;48.62;101164.66;5029139;28;20033;-74
2023/07/26 08:41:58;;;;;;;1.70;1.42;;;;;;;21.96;48.42;101159.38;5029218;28;20049;-74
2023/07/26 08:44:24;;;;;;;4.75;1.60;;;;;;;21.98;48.67;101165.28;5044914;28;21135;-74
2023/07/26 08:46:52;;;;;;;1.52;1.30;;;;;;;21.93;48.57;101155.25;5026478;28;20060;-74
2023/07/26 08:49:18;;;;;;;1.98;1.27;;;;;;;22.06;48.58;101169.69;5028821;28;20025;-75
2023/07/26 08:51:45;;;;;;;2.75;1.80;;;;;;;21.98;48.33;101152.03;5033523;28;20045;-75
2023/07/26 08:54:12;;;;;;;1.13;1.02;;;;;;;22.06;48.31;101161.72;5033156;28;20029;-74
2023/07/26 08:56:39;;;;;;;2.53;1.23;;;;;;;22.03;48.22;101161.06;5027577;28;20049;-75
2023/07/26 08:59:04;;;;;;;1.40;1.30;;;;;;;22.03;48.36;101162.91;5026543;28;20053;-75
2023/07/26 09:01:30;;;;;;;2.47;1.25;;;;;;;21.98;48.27;101160.00;5030395;28;20650;-74
2023/07/26 09:03:56;;;;;;;1.90;1.33;;;;;;;22.03;48.33;101163.72;5028676;28;20045;-74
2023/07/26 09:06:23;;;;;;;2.03;1.67;;;;;;;22.04;48.34;101156.59;5033132;28;20080;-75
2023/07/26 09:08:49;;;;;;;1.38;1.27;;;;;;;22.06;48.47;101157.25;5030800;28;20037;-75
2023/07/26 09:11:23;;;;;;;3.03;1.20;;;;;;;22.09;48.37;101154.25;5029851;28;20046;-75
2023/07/26 09:14:09;;;;;;;1.23;1.13;;;;;;;22.09;48.31;101148.94;5031467;28;20454;-74
2023/07/26 09:16:34;;;;;;;1.33;1.20;;;;;;;22.11;48.32;101146.09;5023775;28;20033;-74
2023/07/26 09:19:02;;;;;;;1.10;1.00;;;;;;;22.11;48.45;101138.16;5025241;28;20049;-74
2023/07/26 09:21:30;;;;;;;3.20;1.30;;;;;;;22.07;48.04;101135.03;5027691;28;20761;-74
2023/07/26 09:23:57;;;;;;;1.27;1.10;;;;;;;22.14;48.34;101135.94;5028705;28;20064;-75
2023/07/26 09:26:40;;;;;;;1.23;1.10;;;;;;;22.18;47.90;101139.03;5027159;28;20061;-75
2023/07/26 09:29:13;;;;;;;2.60;1.67;;;;;;;22.12;48.05;101129.19;5028885;28;20034;-75
2023/07/26 09:31:42;;;;;;;2.15;1.40;;;;;;;22.19;48.11;101144.16;5043581;28;20037;-75
2023/07/26 09:34:16;;;;;;;1.85;1.40;;;;;;;22.22;48.00;101148.25;5032128;28;20468;-75
2023/07/26 09:36:49;;;;;;;1.65;1.17;;;;;;;22.08;47.95;101126.06;5024733;28;20494;-75
2023/07/26 09:39:17;;;;;;;2.40;1.33;;;;;;;22.22;48.06;101143.78;5028704;28;20588;-75
2023/07/26 09:41:45;;;;;;;2.58;1.60;;;;;;;22.18;48.42;101141.69;5029886;28;20241;-74
2023/07/26 09:44:23;;;;;;;1.67;1.27;;;;;;;22.17;48.24;101140.88;5029686;28;20037;-71
2023/07/26 09:46:54;;;;;;;1.58;1.42;;;;;;;22.11;48.39;101131.00;5027191;28;20061;-72
2023/07/26 09:49:24;;;;;;;2.70;1.30;;;;;;;22.21;48.09;101147.44;5033429;28;20048;-72
2023/07/26 09:51:54;;;;;;;1.83;1.55;;;;;;;22.21;47.92;101142.13;5036222;28;20120;-72
2023/07/26 09:54:28;;;;;;;2.67;1.38;;;;;;;22.22;47.98;101146.41;5032655;28;20049;-71
2023/07/26 09:56:55;;;;;;;1.55;1.45;;;;;;;22.18;48.02;101131.91;5035496;28;20048;-71
2023/07/26 09:59:23;;;;;;;3.47;1.27;;;;;;;22.25;47.96;101135.44;5034352;28;20040;-70
2023/07/26 10:01:51;;;;;;;2.00;1.20;;;;;;;22.26;47.88;101129.16;5029788;28;20072;-69
2023/07/26 10:04:27;;;;;;;2.17;1.60;;;;;;;22.23;48.04;101156.03;5032835;28;20029;-69
2023/07/26 10:06:56;;;;;;;2.63;1.58;;;;;;;22.21;48.31;101159.88;5030913;28;20061;-73
2023/07/26 10:09:24;;;;;;;1.45;1.35;;;;;;;22.20;48.22;101151.09;5028166;28;20142;-72
2023/07/26 10:11:51;;;;;;;2.72;1.52;;;;;;;22.20;47.85;101148.44;5035224;28;20152;-71
2023/07/26 10:14:20;;;;;;;1.45;1.27;;;;;;;22.13;48.21;101138.78;5028988;28;20040;-72
2023/07/26 10:16:47;;;;;;;1.65;1.48;;;;;;;22.16;47.99;101138.41;5046667;28;20044;-72
2023/07/26 10:19:14;;;;;;;2.25;1.40;;;;;;;22.15;48.03;101129.63;5034535;28;20056;-71
2023/07/26 10:21:40;;;;;;;1.95;1.25;;;;;;;22.15;47.97;101140.22;5034081;28;20060;-72
2023/07/26 10:24:07;;;;;;;1.92;1.23;;;;;;;22.14;48.21;101132.47;5034329;28;20041;-72
2023/07/26 10:26:35;;;;;;;2.63;0.93;;;;;;;22.14;48.44;101133.28;5029524;28;20414;-73
2023/07/26 10:29:02;;;;;;;1.98;1.40;;;;;;;22.17;48.42;101130.25;5032117;28;20039;-73
2023/07/26 10:31:28;;;;;;;2.00;1.45;;;;;;;22.12;48.28;101127.34;5033944;28;20145;-72
2023/07/26 10:33:56;;;;;;;4.38;1.45;;;;;;;22.19;48.03;101127.41;5033004;28;20045;-73
2023/07/26 10:36:28;;;;;;;1.58;1.42;;;;;;;22.18;48.00;101131.06;5032902;28;20029;-73
2023/07/26 10:38:54;;;;;;;2.05;1.40;;;;;;;22.18;48.27;101121.28;5032007;28;20064;-72
2023/07/26 10:41:27;;;;;;;1.60;1.10;;;;;;;22.15;47.96;101121.66;5033295;28;20084;-72
2023/07/26 10:44:02;;;;;;;1.42;1.33;;;;;;;22.18;48.30;101117.81;5031068;28;20415;-71
2023/07/26 10:46:28;;;;;;;1.48;1.02;;;;;;;22.00;48.15;101102.28;5030267;28;20442;-71
2023/07/26 10:48:53;;;;;;;6.95;2.78;;;;;;;22.15;48.16;101123.50;5029583;28;20135;-72
2023/07/26 10:51:33;;;;;;;2.78;1.50;;;;;;;22.15;48.49;101119.00;5031137;28;20049;-72
2023/07/26 10:54:00;;;;;;;1.45;1.33;;;;;;;22.16;48.49;101122.50;5029873;28;20148;-71
2023/07/26 10:56:30;;;;;;;2.97;1.23;;;;;;;22.15;48.41;101121.66;5028039;28;20033;-71
2023/07/26 10:59:16;;;;;;;1.20;1.10;;;;;;;22.15;48.14;101105.75;5030829;28;20123;-72
2023/07/26 11:01:46;;;;;;;2.55;1.38;;;;;;;22.18;48.11;101131.91;5028684;28;20045;-71
2023/07/26 11:04:14;;;;;;;1.80;1.67;;;;;;;22.17;48.15;101124.94;5028706;28;20038;-71
2023/07/26 11:07:00;;;;;;;1.65;1.20;;;;;;;22.16;48.16;101114.53;5031625;28;20076;-71
2023/07/26 11:09:30;;;;;;;1.23;1.10;;;;;;;22.15;48.36;101121.66;5030517;28;20451;-73
2023/07/26 11:11:57;;;;;;;2.75;1.40;;;;;;;22.12;48.30;101113.28;5029285;28;20045;-72
2023/07/26 11:14:28;;;;;;;1.35;1.00;;;;;;;22.15;48.22;101111.06;5023939;28;20030;-72
2023/07/26 11:16:54;;;;;;;2.03;1.38;;;;;;;22.03;48.57;101101.91;5028112;28;21167;-72
2023/07/26 11:19:20;;;;;;;1.58;1.30;;;;;;;22.03;48.43;101089.47;5023252;28;20107;-72
2023/07/26 11:21:46;;;;;;;3.03;1.55;;;;;;;22.17;48.41;101124.94;5028363;28;20041;-72